logo
Search for airport 
image banner adimage banner adimage banner ad
image banner ad

FKND - Ndeng

Located in , Cameroon

ICAO - , IATA -

Data provided by Airmate  

General information

Coordinates: N3°47'12" E14°59'21"
Elevation is 2256 feet MSL.
 
View others Airports in East Region

Operational data

Special qualification required
Current time UTC:
Current local time:
Weather at : - ( 0 km )
METAR: YMHB 141606Z AUTO 23020G30KT 2800 -RA SCT013 OVC026 09/08 Q0996 RERA
View NOTAMs / SUP AIP / TFR affecting this airport [VIEW]
Communications frequencies: [VIEW]

Runways:

RWY identifierQFULength (ft)Width (ft)SurfaceLDA (ft)
1100UNK
2900UNK

Airport contact information

Address: Cameroon

Satellite view of FKND